createdAt,value
2023-03-11T00:00:36.265Z,3.38
2023-03-11T00:03:04.470Z,3.03
2023-03-11T00:05:39.683Z,3.05
2023-03-11T00:10:40.530Z,3.13
2023-03-11T00:13:11.027Z,3.28
2023-03-11T00:15:38.368Z,3.53
2023-03-11T00:18:05.338Z,3.47
2023-03-11T00:20:37.545Z,3.25
2023-03-11T00:23:05.527Z,2.88
2023-03-11T00:25:33.821Z,3.58
2023-03-11T00:28:00.843Z,3.38
2023-03-11T00:30:28.691Z,4.32
2023-03-11T00:32:57.525Z,2.95
2023-03-11T00:35:26.894Z,3.22
2023-03-11T00:37:59.090Z,3.47
2023-03-11T00:40:28.337Z,3.15
2023-03-11T00:42:55.019Z,4.15
2023-03-11T00:45:21.968Z,4.15
2023-03-11T00:47:48.712Z,4.25
2023-03-11T00:50:25.514Z,3.55
2023-03-11T00:52:52.990Z,3.33
2023-03-11T00:55:23.023Z,3.25
2023-03-11T00:57:55.544Z,3.60
2023-03-11T01:00:24.542Z,3.75
2023-03-11T01:02:52.202Z,3.38
2023-03-11T01:05:21.342Z,3.40
2023-03-11T01:07:48.493Z,4.00
2023-03-11T01:10:16.025Z,3.28
2023-03-11T01:12:43.472Z,3.35
2023-03-11T01:15:19.030Z,3.85
2023-03-11T01:17:45.835Z,4.15
2023-03-11T01:20:13.125Z,4.45
2023-03-11T01:22:40.028Z,3.78
2023-03-11T01:25:07.235Z,3.53
2023-03-11T01:27:33.960Z,3.13
2023-03-11T01:30:00.679Z,3.55
2023-03-11T01:32:27.502Z,3.33
2023-03-11T01:34:54.248Z,3.53
2023-03-11T01:37:21.035Z,4.13
2023-03-11T01:39:47.696Z,3.63
2023-03-11T01:42:14.452Z,3.88
2023-03-11T01:44:41.153Z,4.25
2023-03-11T01:47:10.771Z,4.47
2023-03-11T01:49:42.104Z,4.43
2023-03-11T01:52:09.290Z,4.00
2023-03-11T01:54:38.403Z,4.53
2023-03-11T01:59:36.191Z,3.50
2023-03-11T02:02:17.995Z,3.70
2023-03-11T02:04:45.161Z,3.60
2023-03-11T02:07:12.394Z,3.80
2023-03-11T02:09:39.095Z,3.30
2023-03-11T02:12:06.984Z,3.50
2023-03-11T02:14:35.277Z,3.00
2023-03-11T02:17:01.972Z,3.05
2023-03-11T02:19:56.305Z,3.85
2023-03-11T02:22:23.556Z,3.35
2023-03-11T02:25:09.595Z,3.15
2023-03-11T02:27:39.119Z,2.88
2023-03-11T02:30:07.167Z,3.40
2023-03-11T02:32:34.218Z,3.90
2023-03-11T02:35:00.869Z,3.90
2023-03-11T02:37:27.556Z,3.50
2023-03-11T02:39:55.457Z,3.95
2023-03-11T02:42:32.924Z,3.72
2023-03-11T02:45:03.804Z,4.22
2023-03-11T02:47:30.934Z,3.63
2023-03-11T02:49:57.619Z,3.72
2023-03-11T02:52:29.014Z,4.15
2023-03-11T02:54:55.659Z,4.40
2023-03-11T02:57:22.358Z,4.38
2023-03-11T02:59:49.043Z,4.03
2023-03-11T03:02:15.973Z,4.03
2023-03-11T03:04:42.692Z,3.92
2023-03-11T03:07:09.499Z,4.10
2023-03-11T03:09:36.804Z,3.92
2023-03-11T03:12:04.252Z,4.20
2023-03-11T03:14:31.124Z,4.97
2023-03-11T03:16:58.015Z,3.58
2023-03-11T03:19:24.733Z,3.92
2023-03-11T03:21:51.427Z,5.03
2023-03-11T03:24:18.125Z,4.20
2023-03-11T03:26:44.799Z,4.20
2023-03-11T03:29:11.446Z,3.50
2023-03-11T03:31:39.754Z,4.72
2023-03-11T03:34:06.554Z,3.75
2023-03-11T03:36:33.218Z,3.97
2023-03-11T03:38:59.916Z,3.85
2023-03-11T03:41:26.554Z,4.18
2023-03-11T03:43:54.824Z,3.83
2023-03-11T03:46:22.263Z,4.50
2023-03-11T03:48:49.165Z,3.78
2023-03-11T03:51:16.141Z,3.22
2023-03-11T03:53:43.310Z,4.28
2023-03-11T03:56:12.669Z,3.60
2023-03-11T03:58:39.419Z,4.95
2023-03-11T04:01:06.765Z,4.72
2023-03-11T04:03:34.842Z,4.18
2023-03-11T04:06:21.134Z,4.03
2023-03-11T04:08:47.958Z,4.07
2023-03-11T04:11:14.710Z,4.55
2023-03-11T04:13:41.510Z,4.00
2023-03-11T04:16:08.252Z,4.38
2023-03-11T04:18:35.131Z,4.28
2023-03-11T04:21:05.908Z,4.10
2023-03-11T04:23:32.812Z,6.32
2023-03-11T04:25:59.617Z,4.28
2023-03-11T04:28:26.398Z,5.05
2023-03-11T04:30:53.304Z,4.22
2023-03-11T04:33:20.275Z,4.47
2023-03-11T04:35:46.951Z,4.20
2023-03-11T04:38:13.765Z,5.05
2023-03-11T04:40:40.605Z,4.88
2023-03-11T04:43:07.295Z,4.95
2023-03-11T04:45:34.124Z,5.43
2023-03-11T04:48:00.767Z,5.22
2023-03-11T04:50:27.464Z,9.15
2023-03-11T04:52:54.259Z,5.55
2023-03-11T04:55:20.939Z,4.90
2023-03-11T04:57:47.683Z,12.05
2023-03-11T05:00:15.902Z,4.53
2023-03-11T05:02:43.005Z,4.40
2023-03-11T05:05:10.284Z,3.63
2023-03-11T05:07:37.312Z,4.20
2023-03-11T05:10:06.848Z,4.45
2023-03-11T05:12:33.549Z,5.70
2023-03-11T05:15:00.231Z,4.53
2023-03-11T05:17:26.931Z,6.47
2023-03-11T05:19:54.187Z,9.38
2023-03-11T05:22:21.354Z,5.03
2023-03-11T05:24:48.405Z,6.50
2023-03-11T05:27:18.751Z,6.15
2023-03-11T05:29:45.535Z,5.25
2023-03-11T05:32:12.872Z,6.72
2023-03-11T05:34:39.633Z,3.88
2023-03-11T05:37:06.396Z,4.75
2023-03-11T05:39:33.387Z,7.45
2023-03-11T05:42:00.144Z,5.78
2023-03-11T05:44:26.898Z,7.03
2023-03-11T05:46:53.583Z,8.23
2023-03-11T05:49:21.672Z,6.03
2023-03-11T05:51:49.218Z,5.28
2023-03-11T05:54:16.198Z,5.35
2023-03-11T05:56:44.342Z,4.82
2023-03-11T05:59:13.782Z,5.32
2023-03-11T06:01:43.308Z,4.72
2023-03-11T06:04:10.559Z,4.30
2023-03-11T06:06:39.512Z,5.07
2023-03-11T06:09:06.226Z,6.22
2023-03-11T06:11:32.939Z,5.65
2023-03-11T06:13:59.651Z,5.88
2023-03-11T06:16:26.898Z,6.30
2023-03-11T06:18:53.668Z,6.65
2023-03-11T06:21:22.806Z,7.05
2023-03-11T06:23:49.923Z,7.30
2023-03-11T06:26:20.239Z,4.80
2023-03-11T06:28:48.013Z,5.88
2023-03-11T06:31:19.687Z,5.65
2023-03-11T06:33:47.344Z,5.40
2023-03-11T06:36:15.622Z,6.47
2023-03-11T06:38:43.200Z,6.07
2023-03-11T06:41:10.337Z,5.25
2023-03-11T06:43:37.225Z,4.38
2023-03-11T06:46:16.797Z,4.90
2023-03-11T06:48:43.604Z,5.88
2023-03-11T06:51:10.856Z,6.35
2023-03-11T06:53:37.488Z,5.78
2023-03-11T06:56:09.772Z,4.90
2023-03-11T06:58:37.918Z,4.82
2023-03-11T07:01:07.402Z,4.20
2023-03-11T07:03:34.185Z,6.35
2023-03-11T07:06:01.159Z,4.28
2023-03-11T07:08:28.193Z,4.07
2023-03-11T07:11:06.529Z,4.28
2023-03-11T07:13:33.861Z,5.20
2023-03-11T07:16:28.247Z,4.32
2023-03-11T07:18:56.845Z,4.05
2023-03-11T07:21:24.315Z,5.07
2023-03-11T07:23:55.143Z,5.22
2023-03-11T07:26:22.492Z,4.57
2023-03-11T07:28:52.876Z,3.85
2023-03-11T07:31:23.431Z,3.70
2023-03-11T07:33:50.374Z,3.72
2023-03-11T07:36:19.872Z,3.67
2023-03-11T07:38:47.568Z,3.85
2023-03-11T07:41:16.079Z,4.43
2023-03-11T07:43:43.420Z,3.63
2023-03-11T07:46:12.768Z,3.53
2023-03-11T07:48:40.468Z,4.05
2023-03-11T07:51:12.519Z,4.47
2023-03-11T07:53:40.754Z,3.97
2023-03-11T07:56:09.046Z,4.18
2023-03-11T07:58:35.972Z,4.15
2023-03-11T08:01:10.784Z,4.15
2023-03-11T08:03:37.864Z,3.55
2023-03-11T08:06:15.647Z,3.40
2023-03-11T08:08:43.060Z,3.67
2023-03-11T08:11:10.441Z,3.53
2023-03-11T08:13:37.103Z,2.95
2023-03-11T08:16:05.451Z,3.97
2023-03-11T08:18:32.609Z,4.40
2023-03-11T08:20:59.750Z,3.20
2023-03-11T08:23:26.427Z,2.85
2023-03-11T08:25:53.113Z,3.05
2023-03-11T08:28:19.748Z,3.67
2023-03-11T08:30:46.458Z,3.40
2023-03-11T08:33:13.317Z,3.72
2023-03-11T08:35:40.126Z,3.63
2023-03-11T08:38:06.997Z,4.10
2023-03-11T08:40:33.703Z,3.50
2023-03-11T08:43:00.424Z,4.53
2023-03-11T08:45:27.116Z,5.30
2023-03-11T08:47:53.809Z,4.90
2023-03-11T08:50:20.747Z,4.45
2023-03-11T08:52:47.489Z,3.67
2023-03-11T08:55:17.933Z,3.50
2023-03-11T08:57:44.801Z,4.18
2023-03-11T09:00:13.382Z,3.25
2023-03-11T09:02:41.675Z,6.00
2023-03-11T09:05:09.065Z,7.35
2023-03-11T09:07:35.936Z,6.75
2023-03-11T09:10:02.658Z,5.22
2023-03-11T09:12:30.436Z,4.28
2023-03-11T09:14:57.201Z,3.15
2023-03-11T09:17:23.870Z,3.65
2023-03-11T09:19:50.641Z,3.55
2023-03-11T09:22:17.507Z,3.83
2023-03-11T09:24:52.499Z,4.00
2023-03-11T09:27:19.340Z,3.97
2023-03-11T09:29:45.998Z,3.90
2023-03-11T09:32:14.002Z,4.03
2023-03-11T09:34:41.161Z,4.30
2023-03-11T09:37:07.893Z,4.03
2023-03-11T09:39:34.667Z,4.28
2023-03-11T09:42:04.678Z,4.45
2023-03-11T09:45:00.357Z,5.07
2023-03-11T09:47:47.409Z,4.47
2023-03-11T09:50:25.965Z,13.90
2023-03-11T09:53:18.983Z,13.90
2023-03-11T09:55:51.115Z,5.55
2023-03-11T09:58:29.914Z,5.53
2023-03-11T10:00:56.849Z,13.25
2023-03-11T10:03:35.782Z,9.00
2023-03-11T10:06:13.217Z,10.38
2023-03-11T10:09:06.042Z,10.85
2023-03-11T10:11:44.878Z,7.63
2023-03-11T10:14:24.198Z,9.95
2023-03-11T10:17:01.797Z,8.48
2023-03-11T10:19:56.384Z,5.43
2023-03-11T10:22:46.185Z,6.75
2023-03-11T10:25:25.905Z,6.10
2023-03-11T10:27:56.102Z,6.78
2023-03-11T10:30:35.559Z,7.70
2023-03-11T10:33:14.340Z,6.72
2023-03-11T10:35:43.180Z,5.63
2023-03-11T10:38:20.045Z,3.25
2023-03-11T10:40:48.588Z,3.92
2023-03-11T10:43:28.928Z,3.97
2023-03-11T10:45:55.822Z,3.95
2023-03-11T10:48:24.551Z,4.70
2023-03-11T10:51:11.373Z,4.28
2023-03-11T10:53:47.469Z,6.72
2023-03-11T10:56:32.776Z,7.50
2023-03-11T10:59:00.406Z,4.13
2023-03-11T11:01:29.024Z,4.28
2023-03-11T11:03:57.464Z,4.05
2023-03-11T11:06:29.015Z,3.83
2023-03-11T11:09:14.816Z,4.88
2023-03-11T11:11:42.075Z,3.35
2023-03-11T11:14:10.299Z,3.42
2023-03-11T11:16:37.601Z,2.20
2023-03-11T11:19:09.534Z,3.20
2023-03-11T11:21:56.451Z,4.28
2023-03-11T11:24:28.240Z,3.08
2023-03-11T11:27:04.861Z,3.05
2023-03-11T11:29:32.014Z,2.88
2023-03-11T11:32:20.097Z,2.97
2023-03-11T11:35:02.364Z,3.35
2023-03-11T11:37:35.179Z,3.42
2023-03-11T11:40:11.604Z,2.92
2023-03-11T11:42:39.790Z,2.63
2023-03-11T11:45:49.597Z,5.25
2023-03-11T11:48:36.145Z,2.35
2023-03-11T11:51:09.005Z,5.05
2023-03-11T11:53:44.914Z,4.13
2023-03-11T11:56:11.557Z,6.03
2023-03-11T11:58:41.063Z,6.68
2023-03-11T12:01:17.330Z,6.68
2023-03-11T12:04:29.090Z,7.68
2023-03-11T12:07:10.960Z,11.18
2023-03-11T12:10:22.177Z,9.95
2023-03-11T12:13:13.508Z,9.70
2023-03-11T12:15:45.000Z,8.70
2023-03-11T12:18:36.571Z,6.20
2023-03-11T12:21:29.826Z,7.03
2023-03-11T12:24:38.004Z,6.63
2023-03-11T12:27:50.102Z,15.82
2023-03-11T12:32:50.115Z,11.77
2023-03-11T12:35:28.669Z,9.63
2023-03-11T12:38:04.701Z,6.88
2023-03-11T12:40:57.196Z,9.18
2023-03-11T12:43:35.034Z,6.63
2023-03-11T12:46:05.880Z,7.53
2023-03-11T12:48:36.605Z,6.75
2023-03-11T12:51:03.612Z,8.60
2023-03-11T12:53:49.641Z,10.30
2023-03-11T12:56:28.712Z,9.48
2023-03-11T12:59:34.309Z,10.85
2023-03-11T13:02:18.718Z,14.23
2023-03-11T13:04:54.902Z,18.38
2023-03-11T13:07:27.578Z,12.23
2023-03-11T13:10:12.930Z,15.43
2023-03-11T13:12:50.365Z,14.93
2023-03-11T13:15:20.054Z,12.52
2023-03-11T13:18:01.675Z,10.80
2023-03-11T13:20:43.063Z,14.57
2023-03-11T13:23:22.870Z,12.55
2023-03-11T13:25:52.047Z,11.52
2023-03-11T13:28:34.053Z,13.02
2023-03-11T13:31:12.702Z,12.80
2023-03-11T13:33:49.618Z,12.30
2023-03-11T13:36:42.495Z,11.68
2023-03-11T13:39:26.660Z,17.60
2023-03-11T13:41:53.566Z,16.65
2023-03-11T13:44:20.230Z,14.68
2023-03-11T13:46:49.983Z,14.07
2023-03-11T13:49:44.595Z,12.98
2023-03-11T13:52:16.464Z,9.32
2023-03-11T13:54:58.164Z,8.68
2023-03-11T13:57:31.850Z,7.13
2023-03-11T14:00:16.306Z,6.50
2023-03-11T14:02:48.590Z,6.32
2023-03-11T14:05:23.012Z,7.75
2023-03-11T14:07:49.878Z,7.88
2023-03-11T14:10:25.665Z,6.10
2023-03-11T14:12:57.126Z,7.28
2023-03-11T14:15:26.503Z,9.00
2023-03-11T14:17:54.112Z,7.68
2023-03-11T14:20:25.392Z,7.90
2023-03-11T14:22:54.040Z,9.23
2023-03-11T14:25:22.702Z,6.40
2023-03-11T14:27:56.782Z,7.15
2023-03-11T14:30:29.322Z,7.47
2023-03-11T14:33:03.506Z,8.35
2023-03-11T14:35:31.550Z,6.32
2023-03-11T14:37:58.265Z,7.10
2023-03-11T14:40:30.847Z,5.97
2023-03-11T14:43:02.433Z,10.07
2023-03-11T14:45:31.124Z,8.95
2023-03-11T14:48:09.467Z,8.70
2023-03-11T14:50:37.057Z,8.10
2023-03-11T14:53:15.654Z,10.75
2023-03-11T14:55:57.594Z,9.05
2023-03-11T14:58:34.703Z,11.75
2023-03-11T15:01:25.475Z,10.68
2023-03-11T15:04:15.995Z,11.55
2023-03-11T15:06:44.306Z,9.80
2023-03-11T15:09:16.402Z,7.45
2023-03-11T15:11:49.998Z,10.85
2023-03-11T15:14:32.038Z,11.82
2023-03-11T15:17:31.496Z,11.27
2023-03-11T15:20:02.270Z,13.18
2023-03-11T15:22:38.301Z,20.63
2023-03-11T15:25:19.060Z,10.70
2023-03-11T15:27:46.028Z,11.77
2023-03-11T15:30:20.352Z,10.40
2023-03-11T15:32:47.684Z,11.95
2023-03-11T15:35:23.503Z,11.07
2023-03-11T15:38:12.325Z,14.05
2023-03-11T15:40:45.572Z,9.10
2023-03-11T15:43:21.546Z,10.40
2023-03-11T15:45:49.123Z,11.00
2023-03-11T15:48:15.841Z,13.15
2023-03-11T15:50:54.731Z,11.38
2023-03-11T15:53:23.375Z,11.15
2023-03-11T15:55:51.013Z,7.93
2023-03-11T15:58:19.642Z,7.95
2023-03-11T16:00:54.038Z,7.60
2023-03-11T16:03:20.893Z,5.57
2023-03-11T16:05:47.725Z,8.23
2023-03-11T16:08:14.792Z,7.10
2023-03-11T16:10:42.646Z,5.78
2023-03-11T16:13:13.308Z,5.18
2023-03-11T16:15:40.444Z,4.00
2023-03-11T16:18:08.858Z,5.22
2023-03-11T16:20:44.416Z,5.78
2023-03-11T16:23:22.902Z,6.80
2023-03-11T16:25:50.414Z,6.25
2023-03-11T16:28:17.615Z,7.75
2023-03-11T16:30:44.427Z,8.82
2023-03-11T16:33:11.208Z,8.77
2023-03-11T16:35:38.219Z,8.13
2023-03-11T16:38:05.048Z,6.82
2023-03-11T16:40:32.769Z,8.30
2023-03-11T16:43:05.249Z,6.85
2023-03-11T16:45:32.036Z,6.53
2023-03-11T16:47:58.796Z,9.25
2023-03-11T16:50:26.271Z,9.85
2023-03-11T16:52:53.966Z,12.32
2023-03-11T16:55:20.794Z,9.15
2023-03-11T16:57:47.541Z,22.55
2023-03-11T17:00:15.016Z,15.20
2023-03-11T17:02:41.903Z,21.67
2023-03-11T17:05:09.143Z,35.72
2023-03-11T17:07:39.222Z,34.92
2023-03-11T17:10:07.100Z,45.05
2023-03-11T17:12:33.773Z,28.92
2023-03-11T17:15:00.579Z,32.47
2023-03-11T17:17:27.376Z,20.35
2023-03-11T17:19:54.061Z,15.82
2023-03-11T17:22:22.039Z,15.57
2023-03-11T17:24:48.717Z,12.68
2023-03-11T17:27:15.485Z,12.30
2023-03-11T17:29:42.221Z,10.20
2023-03-11T17:32:09.020Z,12.23
2023-03-11T17:34:35.777Z,34.58
2023-03-11T17:37:02.412Z,23.27
2023-03-11T17:39:29.487Z,16.63
2023-03-11T17:41:56.246Z,10.35
2023-03-11T17:44:22.998Z,10.07
2023-03-11T17:46:49.686Z,11.80
2023-03-11T17:49:16.526Z,6.60
2023-03-11T17:51:43.335Z,7.00
2023-03-11T17:54:10.022Z,6.00
2023-03-11T17:56:36.731Z,9.68
2023-03-11T17:59:03.626Z,6.35
2023-03-11T18:01:30.513Z,7.55
2023-03-11T18:03:57.541Z,5.43
2023-03-11T18:06:24.347Z,8.27
2023-03-11T18:08:51.226Z,9.40
2023-03-11T18:11:20.964Z,6.50
2023-03-11T18:13:47.844Z,5.28
2023-03-11T18:16:17.877Z,5.43
2023-03-11T18:18:44.820Z,5.82
2023-03-11T18:21:17.383Z,8.05
2023-03-11T18:23:44.615Z,5.00
2023-03-11T18:26:13.802Z,4.93
2023-03-11T18:31:25.841Z,5.10
2023-03-11T18:33:54.930Z,6.22
2023-03-11T18:36:28.536Z,6.72
2023-03-11T18:38:57.052Z,6.90
2023-03-11T18:41:24.928Z,4.78
2023-03-11T18:43:58.956Z,7.38
2023-03-11T18:46:28.614Z,5.93
2023-03-11T18:48:57.651Z,14.05
2023-03-11T18:51:25.455Z,3.60
2023-03-11T18:53:52.118Z,7.13
2023-03-11T18:56:18.830Z,4.47
2023-03-11T18:58:45.590Z,4.57
2023-03-11T19:01:17.308Z,4.97
2023-03-11T19:03:45.597Z,3.90
2023-03-11T19:06:13.536Z,2.65
2023-03-11T19:08:40.512Z,4.07
2023-03-11T19:11:13.025Z,2.47
2023-03-11T19:13:47.068Z,5.40
2023-03-11T19:16:17.154Z,4.25
2023-03-11T19:18:43.989Z,5.10
2023-03-11T19:21:12.262Z,4.25
2023-03-11T19:23:39.114Z,3.78
2023-03-11T19:26:06.122Z,4.20
2023-03-11T19:28:32.979Z,4.38
2023-03-11T19:31:00.117Z,2.78
2023-03-11T19:33:26.991Z,4.10
2023-03-11T19:36:02.367Z,4.00
2023-03-11T19:38:29.667Z,3.17
2023-03-11T19:41:05.791Z,2.00
2023-03-11T19:43:35.677Z,4.78
2023-03-11T19:46:04.097Z,7.03
2023-03-11T19:48:31.194Z,5.55
2023-03-11T19:50:58.645Z,4.22
2023-03-11T19:53:25.984Z,3.10
2023-03-11T19:55:54.299Z,2.47
2023-03-11T19:58:23.705Z,5.18
2023-03-11T20:00:50.516Z,4.18
2023-03-11T20:03:17.305Z,2.83
2023-03-11T20:05:46.418Z,2.88
2023-03-11T20:10:42.388Z,3.20
2023-03-11T20:13:09.462Z,1.60
2023-03-11T20:15:36.769Z,2.75
2023-03-11T20:18:05.576Z,3.10
2023-03-11T20:20:33.130Z,2.65
2023-03-11T20:23:00.193Z,2.58
2023-03-11T20:25:29.643Z,2.83
2023-03-11T20:27:56.414Z,2.53
2023-03-11T20:30:24.490Z,3.47
2023-03-11T20:32:51.636Z,2.70
2023-03-11T20:35:18.975Z,1.52
2023-03-11T20:37:45.861Z,2.95
2023-03-11T20:40:14.923Z,2.15
2023-03-11T20:42:43.262Z,2.65
2023-03-11T20:45:11.251Z,2.63
2023-03-11T20:47:37.962Z,2.22
2023-03-11T20:50:05.280Z,8.55
2023-03-11T20:52:35.813Z,2.53
2023-03-11T20:55:04.290Z,9.20
2023-03-11T20:57:30.964Z,24.80
2023-03-11T20:59:57.715Z,3.65
2023-03-11T21:02:24.511Z,2.10
2023-03-11T21:04:51.341Z,5.22
2023-03-11T21:07:18.138Z,2.47
2023-03-11T21:09:45.059Z,2.00
2023-03-11T21:12:11.777Z,2.63
2023-03-11T21:14:38.582Z,3.53
2023-03-11T21:17:05.420Z,2.42
2023-03-11T21:19:32.205Z,2.15
2023-03-11T21:21:59.328Z,3.40
2023-03-11T21:24:26.278Z,2.30
2023-03-11T21:26:53.065Z,2.67
2023-03-11T21:29:19.839Z,2.75
2023-03-11T21:31:46.554Z,1.88
2023-03-11T21:34:13.252Z,2.90
2023-03-11T21:36:40.278Z,2.03
2023-03-11T21:39:07.229Z,2.28
2023-03-11T21:41:34.039Z,1.98
2023-03-11T21:44:01.041Z,2.05
2023-03-11T21:46:30.564Z,2.15
2023-03-11T21:48:57.823Z,1.90
2023-03-11T21:51:25.805Z,1.35
2023-03-11T21:53:52.705Z,2.17
2023-03-11T21:56:19.638Z,2.25
2023-03-11T21:58:46.418Z,2.70
2023-03-11T22:01:13.515Z,1.88
2023-03-11T22:03:41.109Z,1.83
2023-03-11T22:06:10.995Z,2.72
2023-03-11T22:08:38.205Z,1.80
2023-03-11T22:11:08.635Z,2.88
2023-03-11T22:13:35.449Z,1.80
2023-03-11T22:16:06.528Z,1.92
2023-03-11T22:18:33.575Z,2.38
2023-03-11T22:21:00.862Z,2.60
2023-03-11T22:23:27.984Z,2.85
2023-03-11T22:25:54.863Z,2.60
2023-03-11T22:28:21.886Z,2.92
2023-03-11T22:30:48.818Z,5.82
2023-03-11T22:33:15.595Z,15.70
2023-03-11T22:35:59.689Z,31.48
2023-03-11T22:38:26.385Z,45.28
2023-03-11T22:40:53.182Z,66.18
2023-03-11T22:43:20.044Z,68.93
2023-03-11T22:45:46.883Z,65.35
2023-03-11T22:48:14.013Z,47.38
2023-03-11T22:50:42.076Z,48.15
2023-03-11T22:53:09.065Z,41.70
2023-03-11T22:55:40.097Z,40.42
2023-03-11T22:58:06.775Z,52.00
2023-03-11T23:00:33.804Z,44.45
2023-03-11T23:03:00.543Z,41.25
2023-03-11T23:05:28.438Z,20.58
2023-03-11T23:07:55.418Z,14.90
2023-03-11T23:10:22.395Z,17.67
2023-03-11T23:12:49.251Z,18.15
2023-03-11T23:15:18.488Z,18.58
2023-03-11T23:17:45.404Z,16.75
2023-03-11T23:20:14.384Z,11.68
2023-03-11T23:22:42.197Z,14.82
2023-03-11T23:25:11.830Z,16.30
2023-03-11T23:27:38.658Z,20.08
2023-03-11T23:30:06.602Z,18.33
2023-03-11T23:32:33.399Z,19.95
2023-03-11T23:35:00.210Z,16.45
2023-03-11T23:37:26.873Z,16.77
2023-03-11T23:39:53.616Z,7.88
2023-03-11T23:42:25.936Z,10.10
2023-03-11T23:44:53.721Z,9.68
2023-03-11T23:47:20.650Z,10.38
2023-03-11T23:49:47.321Z,12.20
2023-03-11T23:52:14.056Z,12.70
2023-03-11T23:54:40.792Z,12.27
2023-03-11T23:57:07.460Z,10.05
2023-03-11T23:59:34.140Z,7.45
